Ana Sayfa
METAR-TAF:

METAR-TAF

Havaalanları :

Amman, Ürdün

Enlem: 31-59N, Boylam: 035-59E, yükseklik: 767 m

Güncel hava durumu gözlemi

Rapor saat 23:00 UTC de 40 dakika önce yapıldı.
Sakin rüzgar
Sıcaklık 15°C
Nem 55%
Basınç 1020 hPa
Görüş mesafesi: 6000 m

METAR: OJAM 252300Z 00000KT 6000 NSC 15/06 Q1020 NOSIG

Saat: 02:40 (23:40 UTC)

Tahmin

Rapor saat 17:00 UTC de 6 saat ve 40 dakika önce yapıldı.
Ayın 25'si saat 18 UTC'den ayın 26'si saat 24 UTC'ye kadar geçerli Tahmin
Rüzgar kuzeybatıdan 8 kt
Görüş mesafesi: 5000 m
Toz Pusu
Geçici
ayın 25'si saat 18 UTC'den ayın 26'si saat 06 UTC'ye kadar
Rüzgar değişken yönden 2 kt
Geçici
ayın 26'si saat 06 UTC'den ayın 26'si saat 16 UTC'ye kadar
Rüzgar doğudan 12 kt
Görüş mesafesi: 5000 m
Toz Pusu

TAF: OJAM 251700Z 2518/2624 31008KT 5000 HZ NSC TEMPO 2518/2606 VRB02KT TEMPO 2606/2616 10012KT 5000 HZ

4.000'den fazla havaalanı için hava durumu gözlemleri ve tahminleri (METAR ve TAF raporları).

Kullanılabilir istasyonlar harita üzerinde sarı ve kırmızı noktalarla gösterilir.

İstasyonun adını görmek için fareyi noktanın üzerinde gezdirin.

Sonrasında hava gözlem ve tahminlerini görmek için tıklayın.

Haritayı değiştirmek için: yaklaştırmak için siyah artı işaretli yeşil düğmeye ve uzaklaştırmak için de eksi işaretli düğmeye hızla tıklayın; bitişik haritalar için yeşil okları kullanın.


METAR-TAF: